Terminal Aerodrome Forecast
Issued by NWS

Home | Current Version | Previous Version | Text Only | Print | Product List | Glossary On
Versions: 1 2 3 4 5 6 7 8 9 10 11 12 13 14 15 16 17 18 19
000
FTAK31 PANC 230523
TAFADU
TAF
PADU 230523Z 2306/2406 14012G20KT 4SM -RA BKN025 BKN050
      TEMPO 2306/2310 6SM -RA BR SCT025 BKN050
     FM231000 13010KT 6SM -RA BKN025 BKN050
     FM240200 05005KT 6SM -RA OVC015=

USA.gov is the U.S. government's official web portal to all federal, state and local government web resources and services.